Time,TemperatureF,DewpointF,PressureIn,WindDirection,WindDirectionDegrees,WindSpeedMPH,WindSpeedGustMPH,Humidity,HourlyPrecipIn,Conditions,Clouds,dailyrainin,SoftwareType,DateUTC
2013-08-11 00:03:00,66.9,58.0,29.87,SSW,203,0.0,2.0,73,0.00,,,0.00,weatherlink.com 1.10,2013-08-11 06:03:00,
2013-08-11 00:18:00,66.0,60.0,29.88,NNE,20,0.0,4.0,80,0.00,,,0.00,weatherlink.com 1.10,2013-08-11 06:18:00,
2013-08-11 00:33:00,66.2,60.0,29.88,SE,127,1.0,4.0,80,0.00,,,0.00,weatherlink.com 1.10,2013-08-11 06:33:00,
2013-08-11 00:48:00,66.7,59.0,29.88,ESE,103,1.0,2.0,77,0.00,,,0.00,weatherlink.com 1.10,2013-08-11 06:48:00,
2013-08-11 01:03:00,66.5,58.0,29.87,ESE,118,0.0,4.0,75,0.00,,,0.00,weatherlink.com 1.10,2013-08-11 07:03:00,
2013-08-11 01:18:00,65.7,59.0,29.88,North,2,1.0,3.0,79,0.00,,,0.00,weatherlink.com 1.10,2013-08-11 07:18:00,
2013-08-11 01:33:00,65.5,59.0,29.89,ESE,103,0.0,1.0,80,0.00,,,0.00,weatherlink.com 1.10,2013-08-11 07:33:00,
2013-08-11 01:48:00,65.7,59.0,29.88,NE,53,4.0,4.0,78,0.00,,,0.00,weatherlink.com 1.10,2013-08-11 07:48:00,
2013-08-11 02:03:00,66.4,59.0,29.89,East,83,1.0,6.0,76,0.00,,,0.00,weatherlink.com 1.10,2013-08-11 08:03:00,
2013-08-11 02:33:00,65.3,59.0,29.90,ENE,69,2.0,3.0,79,0.00,,,0.00,weatherlink.com 1.10,2013-08-11 08:33:00,
2013-08-11 02:48:00,64.9,58.0,29.90,East,94,2.0,3.0,79,0.00,,,0.00,weatherlink.com 1.10,2013-08-11 08:48:00,
2013-08-11 03:03:00,64.3,58.0,29.90,East,82,1.0,3.0,81,0.00,,,0.00,weatherlink.com 1.10,2013-08-11 09:03:00,
2013-08-11 03:18:00,63.4,58.0,29.90,SE,130,0.0,1.0,81,0.00,,,0.00,weatherlink.com 1.10,2013-08-11 09:18:00,
2013-08-11 03:33:00,62.6,57.0,29.90,ESE,121,0.0,1.0,83,0.00,,,0.00,weatherlink.com 1.10,2013-08-11 09:33:00,
2013-08-11 03:48:00,61.4,57.0,29.89,ESE,121,0.0,0.0,86,0.00,,,0.00,weatherlink.com 1.10,2013-08-11 09:48:00,
2013-08-11 04:03:00,60.7,57.0,29.90,WSW,254,2.0,2.0,87,0.00,,,0.00,weatherlink.com 1.10,2013-08-11 10:03:00,
2013-08-11 04:18:00,60.9,57.0,29.89,NNE,17,0.0,2.0,87,0.00,,,0.00,weatherlink.com 1.10,2013-08-11 10:18:00,
2013-08-11 04:33:00,59.2,56.0,29.89,ESE,117,1.0,2.0,90,0.00,,,0.00,weatherlink.com 1.10,2013-08-11 10:33:00,
2013-08-11 04:48:00,59.8,57.0,29.90,ESE,105,0.0,3.0,89,0.00,,,0.00,weatherlink.com 1.10,2013-08-11 10:48:00,
2013-08-11 05:03:00,59.3,56.0,29.89,SSE,167,2.0,2.0,89,0.00,,,0.00,weatherlink.com 1.10,2013-08-11 11:03:00,
2013-08-11 05:33:00,57.6,55.0,29.90,NNE,25,0.0,2.0,92,0.00,,,0.00,weatherlink.com 1.10,2013-08-11 11:33:00,
2013-08-11 05:49:00,57.4,55.0,29.91,South,176,0.0,2.0,93,0.00,,,0.00,weatherlink.com 1.10,2013-08-11 11:49:00,
2013-08-11 06:04:00,56.9,55.0,29.91,SW,217,0.0,1.0,94,0.00,,,0.00,weatherlink.com 1.10,2013-08-11 12:04:00,
2013-08-11 06:19:00,56.4,55.0,29.91,SW,217,0.0,1.0,94,0.00,,,0.00,weatherlink.com 1.10,2013-08-11 12:19:00,
2013-08-11 06:49:00,56.5,55.0,29.92,SSE,162,0.0,2.0,94,0.00,,,0.00,weatherlink.com 1.10,2013-08-11 12:49:00,
2013-08-11 07:04:00,57.2,55.0,29.93,South,177,1.0,2.0,93,0.00,,,0.00,weatherlink.com 1.10,2013-08-11 13:04:00,
2013-08-11 07:34:00,57.8,56.0,29.93,West,266,0.0,0.0,94,0.00,,,0.00,weatherlink.com 1.10,2013-08-11 13:34:00,
2013-08-11 07:49:00,59.3,58.0,29.93,South,188,0.0,1.0,94,0.00,,,0.00,weatherlink.com 1.10,2013-08-11 13:49:00,
2013-08-11 08:04:00,61.1,58.0,29.92,ESE,120,0.0,1.0,88,0.00,,,0.00,weatherlink.com 1.10,2013-08-11 14:04:00,
2013-08-11 08:19:00,62.3,59.0,29.92,North,6,1.0,2.0,88,0.00,,,0.00,weatherlink.com 1.10,2013-08-11 14:19:00,
2013-08-11 08:34:00,63.7,59.0,29.92,NW,314,2.0,2.0,85,0.00,,,0.00,weatherlink.com 1.10,2013-08-11 14:34:00,
2013-08-11 08:49:00,66.5,60.0,29.92,NNW,337,0.0,1.0,79,0.00,,,0.00,weatherlink.com 1.10,2013-08-11 14:49:00,
2013-08-11 09:04:00,67.3,60.0,29.92,SW,230,0.0,1.0,77,0.00,,,0.00,weatherlink.com 1.10,2013-08-11 15:04:00,
2013-08-11 09:19:00,68.3,60.0,29.92,NNW,338,0.0,2.0,74,0.00,,,0.00,weatherlink.com 1.10,2013-08-11 15:19:00,
2013-08-11 09:34:00,69.3,61.0,29.91,WSW,256,0.0,2.0,74,0.00,,,0.00,weatherlink.com 1.10,2013-08-11 15:34:00,
2013-08-11 09:49:00,69.1,59.0,29.91,NNE,17,2.0,4.0,71,0.00,,,0.00,weatherlink.com 1.10,2013-08-11 15:49:00,
2013-08-11 10:04:00,69.7,59.0,29.91,NE,39,0.0,4.0,69,0.00,,,0.00,weatherlink.com 1.10,2013-08-11 16:04:00,
2013-08-11 10:19:00,70.8,60.0,29.91,NNE,15,4.0,6.0,68,0.00,,,0.00,weatherlink.com 1.10,2013-08-11 16:19:00,
2013-08-11 10:34:00,71.5,61.0,29.91,NE,36,1.0,5.0,69,0.00,,,0.00,weatherlink.com 1.10,2013-08-11 16:34:00,
2013-08-11 11:04:00,73.5,62.0,29.90,NNE,29,3.0,6.0,67,0.00,,,0.00,weatherlink.com 1.10,2013-08-11 17:04:00,
2013-08-11 11:19:00,74.8,61.0,29.90,NE,52,4.0,6.0,62,0.00,,,0.00,weatherlink.com 1.10,2013-08-11 17:19:00,
2013-08-11 11:34:00,75.8,58.0,29.89,ENE,68,1.0,7.0,55,0.00,,,0.00,weatherlink.com 1.10,2013-08-11 17:34:00,
2013-08-11 11:49:00,76.7,58.0,29.89,NE,37,5.0,7.0,53,0.00,,,0.00,weatherlink.com 1.10,2013-08-11 17:49:00,
2013-08-11 12:19:00,78.4,57.0,29.88,NNE,24,2.0,6.0,48,0.00,,,0.00,weatherlink.com 1.10,2013-08-11 18:19:00,
2013-08-11 12:34:00,78.7,58.0,29.88,East,80,2.0,6.0,49,0.00,,,0.00,weatherlink.com 1.10,2013-08-11 18:34:00,
2013-08-11 12:49:00,78.8,57.0,29.87,NE,42,2.0,5.0,48,0.00,,,0.00,weatherlink.com 1.10,2013-08-11 18:49:00,
2013-08-11 13:04:00,79.3,58.0,29.86,NE,37,3.0,4.0,49,0.00,,,0.00,weatherlink.com 1.10,2013-08-11 19:04:00,
2013-08-11 13:20:00,80.3,57.0,29.86,NE,54,4.0,7.0,45,0.00,,,0.00,weatherlink.com 1.10,2013-08-11 19:20:00,
2013-08-11 13:35:00,80.9,60.0,29.86,NE,43,4.0,5.0,49,0.00,,,0.00,weatherlink.com 1.10,2013-08-11 19:35:00,
2013-08-11 13:50:00,81.6,59.0,29.85,NE,49,3.0,6.0,47,0.00,,,0.00,weatherlink.com 1.10,2013-08-11 19:50:00,
2013-08-11 14:05:00,82.3,60.0,29.85,ENE,71,3.0,7.0,47,0.00,,,0.00,weatherlink.com 1.10,2013-08-11 20:05:00,
2013-08-11 14:20:00,82.8,61.0,29.84,NE,52,2.0,9.0,48,0.00,,,0.00,weatherlink.com 1.10,2013-08-11 20:20:00,
2013-08-11 14:35:00,83.2,60.0,29.84,ENE,78,3.0,7.0,46,0.00,,,0.00,weatherlink.com 1.10,2013-08-11 20:35:00,
2013-08-11 15:05:00,83.6,59.0,29.83,NNE,26,4.0,8.0,44,0.00,,,0.00,weatherlink.com 1.10,2013-08-11 21:05:00,
2013-08-11 15:20:00,83.7,60.0,29.82,NE,45,7.0,8.0,44,0.00,,,0.00,weatherlink.com 1.10,2013-08-11 21:20:00,
2013-08-11 15:35:00,83.9,60.0,29.82,ENE,72,5.0,8.0,45,0.00,,,0.00,weatherlink.com 1.10,2013-08-11 21:35:00,
2013-08-11 15:50:00,84.6,61.0,29.82,ENE,70,5.0,8.0,45,0.00,,,0.00,weatherlink.com 1.10,2013-08-11 21:50:00,
2013-08-11 16:05:00,84.8,60.0,29.82,NE,44,8.0,10.0,43,0.00,,,0.00,weatherlink.com 1.10,2013-08-11 22:05:00,
2013-08-11 16:20:00,85.3,60.0,29.82,NE,50,3.0,7.0,43,0.00,,,0.00,weatherlink.com 1.10,2013-08-11 22:20:00,
2013-08-11 16:35:00,85.4,59.0,29.82,ENE,65,4.0,7.0,41,0.00,,,0.00,weatherlink.com 1.10,2013-08-11 22:35:00,
2013-08-11 16:50:00,86.2,57.0,29.82,ENE,73,4.0,5.0,37,0.00,,,0.00,weatherlink.com 1.10,2013-08-11 22:50:00,
2013-08-11 17:05:00,86.2,58.0,29.82,NE,46,4.0,6.0,38,0.00,,,0.00,weatherlink.com 1.10,2013-08-11 23:05:00,
2013-08-11 17:20:00,84.7,56.0,29.81,NE,48,3.0,5.0,38,0.00,,,0.00,weatherlink.com 1.10,2013-08-11 23:20:00,
2013-08-11 17:35:00,83.8,56.0,29.82,ENE,77,3.0,5.0,38,0.00,,,0.00,weatherlink.com 1.10,2013-08-11 23:35:00,
2013-08-11 17:50:00,83.3,58.0,29.82,ENE,67,3.0,5.0,42,0.00,,,0.00,weatherlink.com 1.10,2013-08-11 23:50:00,
2013-08-11 18:05:00,83.0,58.0,29.82,ENE,76,1.0,3.0,42,0.00,,,0.00,weatherlink.com 1.10,2013-08-12 00:05:00,
2013-08-11 18:20:00,82.6,59.0,29.82,ENE,63,3.0,4.0,45,0.00,,,0.00,weatherlink.com 1.10,2013-08-12 00:20:00,
2013-08-11 18:35:00,82.1,59.0,29.81,East,81,2.0,5.0,46,0.00,,,0.00,weatherlink.com 1.10,2013-08-12 00:35:00,
2013-08-11 18:50:00,81.4,61.0,29.81,East,87,1.0,2.0,50,0.00,,,0.00,weatherlink.com 1.10,2013-08-12 00:50:00,
2013-08-11 19:05:00,81.0,62.0,29.82,East,93,0.0,1.0,52,0.00,,,0.00,weatherlink.com 1.10,2013-08-12 01:05:00,
2013-08-11 19:20:00,80.7,61.0,29.81,ENE,67,3.0,4.0,52,0.00,,,0.00,weatherlink.com 1.10,2013-08-12 01:20:00,
2013-08-11 19:50:00,79.0,62.0,29.81,East,94,3.0,5.0,57,0.00,,,0.00,weatherlink.com 1.10,2013-08-12 01:50:00,
2013-08-11 20:20:00,76.1,63.0,29.81,East,81,0.0,1.0,63,0.00,,,0.00,weatherlink.com 1.10,2013-08-12 02:20:00,
2013-08-11 20:35:00,75.6,63.0,29.82,East,82,0.0,1.0,64,0.00,,,0.00,weatherlink.com 1.10,2013-08-12 02:35:00,
2013-08-11 20:50:00,74.8,62.0,29.82,ESE,122,0.0,1.0,65,0.00,,,0.00,weatherlink.com 1.10,2013-08-12 02:50:00,
2013-08-11 21:05:00,74.3,61.0,29.83,ESE,122,0.0,0.0,64,0.00,,,0.00,weatherlink.com 1.10,2013-08-12 03:05:00,
2013-08-11 21:20:00,72.7,62.0,29.84,ESE,122,0.0,0.0,68,0.00,,,0.00,weatherlink.com 1.10,2013-08-12 03:20:00,
2013-08-11 21:35:00,72.7,62.0,29.84,ESE,123,0.0,0.0,68,0.00,,,0.00,weatherlink.com 1.10,2013-08-12 03:35:00,
2013-08-11 21:50:00,72.2,61.0,29.85,SSE,155,0.0,0.0,69,0.00,,,0.00,weatherlink.com 1.10,2013-08-12 03:50:00,
2013-08-11 22:05:00,72.0,61.0,29.85,East,97,0.0,0.0,69,0.00,,,0.00,weatherlink.com 1.10,2013-08-12 04:05:00,
2013-08-11 22:20:00,70.9,61.0,29.85,East,96,0.0,0.0,71,0.00,,,0.00,weatherlink.com 1.10,2013-08-12 04:20:00,
2013-08-11 22:35:00,70.7,62.0,29.84,East,96,0.0,0.0,73,0.00,,,0.00,weatherlink.com 1.10,2013-08-12 04:35:00,
2013-08-11 22:50:00,70.0,62.0,29.84,East,94,0.0,0.0,75,0.00,,,0.00,weatherlink.com 1.10,2013-08-12 04:50:00,
2013-08-11 23:05:00,69.9,61.0,29.84,East,89,0.0,0.0,74,0.00,,,0.00,weatherlink.com 1.10,2013-08-12 05:05:00,
2013-08-11 23:21:00,69.7,61.0,29.84,East,84,4.0,4.0,74,0.00,,,0.00,weatherlink.com 1.10,2013-08-12 05:21:00,
2013-08-11 23:35:00,69.1,61.0,29.84,ENE,70,0.0,2.0,75,0.00,,,0.00,weatherlink.com 1.10,2013-08-12 05:35:00,
2013-08-11 23:50:00,66.4,60.0,29.84,ENE,72,0.0,1.0,81,0.00,,,0.00,weatherlink.com 1.10,2013-08-12 05:50:00,